Time;durP1;ratioP1;P1;durP2;ratioP2;P2;SDS_P1;SDS_P2;PMS_P1;PMS_P2;Temp;Humidity;BMP_temperature;BMP_pressure;BME280_temperature;BME280_humidity;BME280_pressure;Samples;Min_cycle;Max_cycle;Signal;HPM_P1;HPM_P2
2023/05/20 00:00:29;;;;;;;6.80;3.92;;;17.70;60.60;;;;;;3971466;29;20061;-54
2023/05/20 00:03:10;;;;;;;8.40;4.10;;;17.70;60.60;;;;;;3958291;29;20058;-53
2023/05/20 00:05:50;;;;;;;7.05;3.58;;;17.70;60.70;;;;;;3958414;29;20059;-51
2023/05/20 00:08:31;;;;;;;11.10;3.75;;;17.70;60.70;;;;;;3957733;29;20184;-53
2023/05/20 00:11:12;;;;;;;6.97;4.03;;;17.70;60.70;;;;;;3958718;29;20066;-51
2023/05/20 00:13:53;;;;;;;10.55;4.47;;;17.70;60.90;;;;;;3960112;29;20415;-51
2023/05/20 00:16:35;;;;;;;7.50;4.55;;;17.70;60.90;;;;;;3973469;29;20099;-50
2023/05/20 00:19:17;;;;;;;8.55;4.05;;;17.70;61.00;;;;;;3973300;29;20057;-51
2023/05/20 00:21:58;;;;;;;9.48;4.07;;;17.70;61.90;;;;;;3973437;29;20448;-51
2023/05/20 00:24:39;;;;;;;6.80;3.95;;;17.70;61.00;;;;;;3973169;29;20103;-51
2023/05/20 00:27:20;;;;;;;9.90;3.65;;;17.60;61.10;;;;;;3951967;29;20219;-54
2023/05/20 00:30:00;;;;;;;5.23;3.63;;;17.60;61.10;;;;;;3973385;29;20061;-51
2023/05/20 00:32:43;;;;;;;8.43;3.28;;;17.60;61.10;;;;;;3961899;29;20061;-51
2023/05/20 00:35:24;;;;;;;8.15;3.65;;;17.60;61.20;;;;;;3972724;29;20065;-53
2023/05/20 00:38:04;;;;;;;5.85;3.38;;;17.60;61.20;;;;;;3972482;29;20067;-54
2023/05/20 00:40:46;;;;;;;7.20;3.20;;;17.60;61.20;;;;;;3961968;29;20062;-50
2023/05/20 00:43:26;;;;;;;6.87;3.20;;;17.60;61.30;;;;;;3961405;29;20069;-53
2023/05/20 00:46:08;;;;;;;7.82;3.63;;;17.60;61.40;;;;;;3972782;29;20335;-50
2023/05/20 00:48:51;;;;;;;6.03;3.10;;;17.50;61.30;;;;;;3972368;29;20054;-53
2023/05/20 00:51:31;;;;;;;6.53;3.22;;;17.60;61.40;;;;;;3970964;29;20062;-53
2023/05/20 00:54:13;;;;;;;10.48;3.70;;;17.60;61.40;;;;;;3961247;29;20066;-50
2023/05/20 00:56:54;;;;;;;8.85;3.28;;;17.60;61.50;;;;;;3972573;29;20510;-54
2023/05/20 00:59:36;;;;;;;6.68;3.28;;;17.50;62.40;;;;;;3961395;29;20254;-52
2023/05/20 01:02:17;;;;;;;6.40;3.72;;;17.60;61.60;;;;;;3960826;29;20065;-54
2023/05/20 01:05:00;;;;;;;7.95;3.38;;;17.50;61.60;;;;;;3972330;29;20066;-52
2023/05/20 01:07:42;;;;;;;6.25;3.17;;;17.50;61.60;;;;;;3956050;29;20704;-50
2023/05/20 01:10:25;;;;;;;3.58;2.78;;;17.50;61.70;;;;;;3952941;29;20058;-51
2023/05/20 01:13:13;;;;;;;6.65;3.53;;;17.50;61.70;;;;;;3960272;29;20077;-52
2023/05/20 01:15:55;;;;;;;5.88;3.35;;;17.50;62.70;;;;;;3972490;29;20053;-51
2023/05/20 01:18:39;;;;;;;10.95;3.53;;;17.50;61.90;;;;;;3972489;29;20400;-49
2023/05/20 01:21:22;;;;;;;9.43;3.55;;;17.50;62.00;;;;;;3960612;29;20532;-52
2023/05/20 01:24:04;;;;;;;6.80;3.67;;;17.50;62.00;;;;;;3960577;29;20061;-50
2023/05/20 01:26:47;;;;;;;5.28;3.15;;;17.50;62.00;;;;;;3971919;29;20513;-52
2023/05/20 01:29:27;;;;;;;6.70;2.92;;;17.40;61.90;;;;;;3972139;29;20065;-52
2023/05/20 01:32:12;;;;;;;8.10;3.35;;;17.40;61.90;;;;;;3970979;29;20091;-49
2023/05/20 01:34:53;;;;;;;3.38;3.08;;;17.40;61.90;;;;;;3960993;29;20053;-52
2023/05/20 01:37:35;;;;;;;;;;;17.40;62.00;;;;;;3961423;29;20072;-49
2023/05/20 01:40:18;;;;;;;7.28;3.40;;;17.40;61.90;;;;;;3950507;29;20432;-51
2023/05/20 01:43:01;;;;;;;5.10;3.17;;;17.40;61.90;;;;;;3972124;29;20054;-56
2023/05/20 01:45:42;;;;;;;5.40;3.20;;;17.40;61.90;;;;;;3959955;29;20180;-49
2023/05/20 01:48:23;;;;;;;7.10;3.00;;;17.40;62.80;;;;;;3972197;29;20062;-51
2023/05/20 01:51:05;;;;;;;7.00;2.90;;;17.40;61.90;;;;;;3960535;29;20075;-52
2023/05/20 01:53:46;;;;;;;6.07;3.08;;;17.40;62.90;;;;;;3970976;29;20663;-52
2023/05/20 01:56:28;;;;;;;6.28;3.40;;;17.30;62.10;;;;;;3960563;29;20062;-48
2023/05/20 01:59:09;;;;;;;6.63;3.65;;;17.30;63.10;;;;;;3960685;29;20070;-52
2023/05/20 02:01:52;;;;;;;4.78;2.80;;;17.30;62.20;;;;;;3960675;29;20071;-53
2023/05/20 02:04:32;;;;;;;5.43;3.10;;;17.30;62.20;;;;;;3950383;29;20062;-53
2023/05/20 02:07:14;;;;;;;5.85;3.15;;;17.30;62.20;;;;;;3971363;29;20057;-52
2023/05/20 02:09:55;;;;;;;;;;;17.30;62.40;;;;;;3961036;29;20506;-53
2023/05/20 02:12:37;;;;;;;6.25;3.15;;;17.30;62.50;;;;;;3960273;29;19932;-52
2023/05/20 02:15:18;;;;;;;4.15;3.10;;;17.30;62.60;;;;;;3960473;29;20079;-53
2023/05/20 02:17:59;;;;;;;3.95;2.67;;;17.20;62.50;;;;;;3971635;29;20053;-51
2023/05/20 02:20:41;;;;;;;4.28;2.90;;;17.30;62.60;;;;;;3960443;29;20066;-54
2023/05/20 02:23:22;;;;;;;3.88;2.60;;;17.30;62.60;;;;;;3971866;29;20057;-52
2023/05/20 02:26:03;;;;;;;7.03;2.70;;;17.20;62.30;;;;;;3960397;29;20065;-50
2023/05/20 02:28:49;;;;;;;6.45;2.80;;;17.20;62.40;;;;;;3958867;29;20058;-52
2023/05/20 02:31:30;;;;;;;6.88;3.35;;;17.20;62.40;;;;;;3971173;29;20123;-49
2023/05/20 02:34:11;;;;;;;3.63;2.65;;;17.20;62.50;;;;;;3960421;29;20127;-52
2023/05/20 02:36:53;;;;;;;3.97;2.78;;;17.20;63.60;;;;;;3971373;29;20404;-50
2023/05/20 02:39:34;;;;;;;2.97;2.60;;;17.20;62.80;;;;;;3959745;29;20054;-53
2023/05/20 02:42:15;;;;;;;2.67;2.40;;;17.20;63.00;;;;;;3971107;29;20107;-55
2023/05/20 02:44:57;;;;;;;4.78;2.70;;;17.20;63.10;;;;;;3960260;29;20535;-50
2023/05/20 02:47:39;;;;;;;4.80;2.10;;;17.10;63.30;;;;;;3967107;29;20058;-50
2023/05/20 02:50:19;;;;;;;3.65;2.50;;;17.10;63.30;;;;;;3971391;29;20200;-53
2023/05/20 02:53:00;;;;;;;3.87;2.60;;;17.10;63.20;;;;;;3959892;29;20133;-54
2023/05/20 02:55:42;;;;;;;4.93;2.50;;;17.10;62.90;;;;;;3960234;29;20879;-51
2023/05/20 02:58:25;;;;;;;5.93;2.33;;;17.10;63.10;;;;;;3956364;29;20062;-50
2023/05/20 03:01:07;;;;;;;4.85;2.63;;;17.10;63.10;;;;;;3956594;29;20058;-50
2023/05/20 03:03:49;;;;;;;7.43;2.40;;;17.10;63.20;;;;;;3945326;29;20075;-53
2023/05/20 03:06:30;;;;;;;4.07;2.30;;;17.10;64.10;;;;;;3954653;29;20407;-50
2023/05/20 03:09:13;;;;;;;2.83;1.80;;;17.10;63.10;;;;;;3971012;29;20122;-54
2023/05/20 03:11:54;;;;;;;3.00;2.25;;;17.10;63.10;;;;;;3960079;29;20061;-51
2023/05/20 03:14:35;;;;;;;4.80;2.40;;;17.10;63.10;;;;;;3971055;29;20133;-54
2023/05/20 03:17:18;;;;;;;2.70;2.30;;;17.00;63.10;;;;;;3970578;29;20063;-50
2023/05/20 03:20:00;;;;;;;6.80;2.50;;;17.00;63.30;;;;;;3971321;29;20195;-53
2023/05/20 03:22:40;;;;;;;4.32;2.00;;;17.00;63.30;;;;;;3960167;29;20786;-50
2023/05/20 03:25:22;;;;;;;2.22;2.03;;;17.00;63.30;;;;;;3959826;29;20061;-54
2023/05/20 03:28:04;;;;;;;4.38;2.05;;;17.00;63.30;;;;;;3959636;29;20123;-51
2023/05/20 03:30:47;;;;;;;1.80;1.70;;;17.00;63.40;;;;;;3970742;29;20197;-51
2023/05/20 03:33:32;;;;;;;3.22;2.10;;;17.00;63.50;;;;;;3958877;29;20144;-53
2023/05/20 03:36:13;;;;;;;2.45;1.67;;;17.00;63.30;;;;;;3945768;30;20132;-54
2023/05/20 03:38:54;;;;;;;2.77;1.93;;;17.00;62.90;;;;;;3958062;29;20059;-50
2023/05/20 03:41:36;;;;;;;2.58;1.80;;;17.00;63.20;;;;;;3947387;29;20066;-50
2023/05/20 03:44:18;;;;;;;1.80;1.70;;;17.00;63.30;;;;;;3963919;29;20149;-50
2023/05/20 03:46:59;;;;;;;2.95;2.05;;;17.00;63.40;;;;;;3972849;29;20069;-50
2023/05/20 03:49:42;;;;;;;2.78;1.92;;;16.90;63.60;;;;;;3962044;29;20058;-51
2023/05/20 03:52:23;;;;;;;3.25;1.80;;;16.90;63.60;;;;;;3973364;29;20201;-50
2023/05/20 03:55:04;;;;;;;2.65;1.40;;;16.90;63.50;;;;;;3962306;29;20142;-52
2023/05/20 03:57:45;;;;;;;4.10;1.98;;;16.90;63.40;;;;;;3962035;29;20147;-50
2023/05/20 04:00:26;;;;;;;2.25;1.58;;;16.90;63.50;;;;;;3972906;29;20135;-52
2023/05/20 04:03:09;;;;;;;3.33;1.88;;;16.90;63.50;;;;;;3962171;29;20143;-50
2023/05/20 04:05:51;;;;;;;3.17;1.67;;;16.90;63.60;;;;;;3962391;29;20058;-51
2023/05/20 04:08:35;;;;;;;2.30;1.65;;;16.90;63.60;;;;;;3961772;29;20058;-49
2023/05/20 04:11:16;;;;;;;2.15;1.40;;;16.90;63.60;;;;;;3961796;29;20404;-54
2023/05/20 04:13:59;;;;;;;2.05;1.50;;;16.90;63.30;;;;;;3961737;29;20054;-50
2023/05/20 04:16:40;;;;;;;3.03;1.77;;;16.90;63.20;;;;;;3972504;29;20069;-54
2023/05/20 04:19:22;;;;;;;1.48;1.00;;;16.90;63.20;;;;;;3972327;29;20065;-54
2023/05/20 04:22:06;;;;;;;1.98;1.45;;;16.90;62.80;;;;;;3972986;29;20414;-53
2023/05/20 04:24:46;;;;;;;2.25;1.25;;;16.90;62.50;;;;;;3961772;29;20062;-54
2023/05/20 04:27:27;;;;;;;2.03;1.83;;;16.90;62.10;;;;;;3961987;29;20064;-52
2023/05/20 04:30:10;;;;;;;2.72;1.23;;;16.90;61.90;;;;;;3951585;29;20061;-52
2023/05/20 04:32:54;;;;;;;1.45;1.38;;;16.90;62.00;;;;;;3946876;29;20062;-50
2023/05/20 04:35:36;;;;;;;3.42;1.45;;;16.90;61.80;;;;;;3958113;29;20054;-51
2023/05/20 04:38:20;;;;;;;1.70;1.58;;;16.90;61.60;;;;;;3957190;29;20074;-50
2023/05/20 04:41:02;;;;;;;1.20;1.13;;;16.90;62.30;;;;;;3961008;29;20062;-52
2023/05/20 04:43:44;;;;;;;2.10;1.40;;;16.90;62.00;;;;;;3961893;29;20073;-51
2023/05/20 04:46:25;;;;;;;4.80;1.50;;;16.90;61.90;;;;;;3972074;29;20062;-52
2023/05/20 04:49:06;;;;;;;1.92;1.35;;;16.80;63.20;;;;;;3961843;29;20082;-53
2023/05/20 04:51:48;;;;;;;1.55;1.40;;;16.80;62.30;;;;;;3972918;29;20200;-52
2023/05/20 04:54:33;;;;;;;4.05;1.17;;;16.80;62.30;;;;;;3961775;29;20049;-51
2023/05/20 04:57:14;;;;;;;2.80;1.42;;;16.80;61.90;;;;;;3961451;29;20062;-52
2023/05/20 04:59:57;;;;;;;2.85;1.30;;;16.80;62.20;;;;;;3972909;29;20514;-52
2023/05/20 05:02:39;;;;;;;1.88;1.55;;;16.80;61.80;;;;;;3934967;29;20076;-52
2023/05/20 05:05:30;;;;;;;3.17;1.42;;;16.90;61.90;;;;;;3936951;29;20174;-52
2023/05/20 05:08:11;;;;;;;3.00;1.35;;;16.90;61.70;;;;;;3956356;29;20062;-52
2023/05/20 05:10:58;;;;;;;1.77;1.02;;;16.90;62.00;;;;;;3961916;29;20077;-52
2023/05/20 05:13:39;;;;;;;2.15;1.17;;;16.90;61.80;;;;;;3961470;29;20137;-53
2023/05/20 05:16:21;;;;;;;1.40;1.13;;;16.90;61.60;;;;;;3971929;29;20195;-52
2023/05/20 05:19:02;;;;;;;2.03;1.23;;;17.00;60.60;;;;;;3960532;29;20066;-54
2023/05/20 05:21:48;;;;;;;2.03;1.45;;;17.00;60.40;;;;;;3960407;29;20387;-51
2023/05/20 05:24:29;;;;;;;1.73;1.10;;;17.10;60.30;;;;;;3961220;29;20419;-54
2023/05/20 05:27:11;;;;;;;1.20;0.80;;;17.10;59.50;;;;;;3972389;29;20200;-52
2023/05/20 05:29:53;;;;;;;4.57;1.05;;;17.20;59.70;;;;;;3971986;29;20096;-54
2023/05/20 05:32:35;;;;;;;1.10;1.10;;;17.30;59.50;;;;;;3960641;29;20062;-54
2023/05/20 05:35:15;;;;;;;2.20;1.10;;;17.30;59.20;;;;;;3972298;29;20103;-55
2023/05/20 05:37:57;;;;;;;2.00;1.13;;;17.40;58.80;;;;;;3961094;29;20215;-56
2023/05/20 05:40:38;;;;;;;;;;;17.50;58.80;;;;;;3960786;29;20057;-57
2023/05/20 05:43:23;;;;;;;1.10;1.00;;;17.60;58.40;;;;;;3971293;29;19932;-57
2023/05/20 05:46:07;;;;;;;1.20;0.98;;;17.60;58.00;;;;;;3959738;29;21222;-55
2023/05/20 05:48:49;;;;;;;1.77;1.10;;;17.70;57.60;;;;;;3958836;29;20058;-56
2023/05/20 05:51:31;;;;;;;2.15;1.20;;;17.70;57.70;;;;;;3960566;29;20524;-55
2023/05/20 05:54:12;;;;;;;1.80;0.90;;;17.70;57.80;;;;;;3960194;29;20062;-56
2023/05/20 05:56:55;;;;;;;1.10;0.95;;;17.70;58.10;;;;;;3963220;29;20134;-54
2023/05/20 05:59:39;;;;;;;3.03;1.15;;;17.70;57.60;;;;;;3976236;29;20135;-54
2023/05/20 06:02:20;;;;;;;2.55;1.13;;;17.80;57.70;;;;;;3960397;29;20057;-58
2023/05/20 06:05:01;;;;;;;1.35;1.02;;;17.80;57.50;;;;;;3971157;29;20053;-55
2023/05/20 06:07:42;;;;;;;;;;;17.80;57.50;;;;;;3961531;29;20057;-52
2023/05/20 06:10:25;;;;;;;2.50;1.17;;;17.80;57.50;;;;;;3971710;29;19949;-53
2023/05/20 06:13:06;;;;;;;1.88;1.05;;;17.80;57.70;;;;;;3971767;29;20518;-52
2023/05/20 06:15:50;;;;;;;2.42;1.20;;;17.80;56.60;;;;;;3969653;29;20061;-52
2023/05/20 06:18:31;;;;;;;1.50;1.40;;;17.80;56.70;;;;;;3970092;29;20062;-51
2023/05/20 06:21:17;;;;;;;1.33;1.23;;;17.80;56.80;;;;;;3959927;29;20081;-53
2023/05/20 06:23:57;;;;;;;1.85;0.95;;;17.80;56.40;;;;;;3971561;29;20415;-51
2023/05/20 06:26:40;;;;;;;3.40;1.20;;;17.80;56.30;;;;;;3959229;29;20131;-53
2023/05/20 06:29:21;;;;;;;3.03;1.35;;;17.80;56.90;;;;;;3970232;29;20111;-53
2023/05/20 06:32:05;;;;;;;;;;;17.80;57.20;;;;;;3969928;29;20184;-52
2023/05/20 06:34:46;;;;;;;1.65;1.40;;;17.90;57.60;;;;;;3970405;29;19936;-52
2023/05/20 06:37:27;;;;;;;1.75;0.90;;;17.90;56.90;;;;;;3959739;29;20415;-55
2023/05/20 06:40:09;;;;;;;1.08;1.00;;;17.90;56.50;;;;;;3969458;29;20123;-52
2023/05/20 06:42:51;;;;;;;1.10;1.00;;;17.90;56.80;;;;;;3970614;29;20057;-54
2023/05/20 06:45:39;;;;;;;3.63;1.50;;;18.00;57.50;;;;;;3970237;29;20558;-51
2023/05/20 06:48:40;;;;;;;1.88;1.15;;;18.00;56.70;;;;;;3970940;29;20184;-49
2023/05/20 06:51:21;;;;;;;1.50;1.40;;;18.10;56.40;;;;;;3959371;29;20058;-52
2023/05/20 06:54:03;;;;;;;1.17;1.10;;;18.10;56.10;;;;;;3971358;29;20057;-50
2023/05/20 06:56:44;;;;;;;1.33;1.10;;;18.10;56.30;;;;;;3960081;29;20058;-53
2023/05/20 06:59:25;;;;;;;1.92;1.25;;;18.20;56.80;;;;;;3959793;29;20134;-55
2023/05/20 07:02:06;;;;;;;1.70;1.15;;;18.30;55.90;;;;;;3959964;29;20123;-48
2023/05/20 07:04:49;;;;;;;2.25;1.15;;;18.30;56.00;;;;;;3970986;29;20134;-54
2023/05/20 07:07:30;;;;;;;2.03;1.50;;;18.30;55.90;;;;;;3959588;29;20541;-53
2023/05/20 07:10:11;;;;;;;;;;;18.40;55.80;;;;;;3950714;29;20416;-53
2023/05/20 07:12:52;;;;;;;2.57;1.23;;;18.40;55.90;;;;;;3963178;29;19945;-57
2023/05/20 07:15:34;;;;;;;3.63;0.90;;;18.50;55.80;;;;;;3963050;29;20340;-55
2023/05/20 07:18:16;;;;;;;2.20;1.30;;;18.50;55.70;;;;;;3959407;29;20173;-55
2023/05/20 07:21:04;;;;;;;2.72;1.10;;;18.50;55.70;;;;;;3948318;29;20136;-55
2023/05/20 07:24:05;;;;;;;3.45;1.40;;;18.50;55.50;;;;;;3957722;29;20157;-55
2023/05/20 07:26:47;;;;;;;2.30;1.38;;;18.60;55.20;;;;;;3966857;29;20061;-56
2023/05/20 07:29:28;;;;;;;3.13;1.17;;;18.60;55.30;;;;;;3972688;29;20111;-54
2023/05/20 07:32:09;;;;;;;1.55;0.98;;;18.50;55.50;;;;;;3962845;29;20057;-54
2023/05/20 07:34:51;;;;;;;1.25;1.00;;;18.60;55.60;;;;;;3973080;29;20502;-56
2023/05/20 07:37:34;;;;;;;1.23;1.10;;;18.60;55.80;;;;;;3958027;29;20527;-68
2023/05/20 07:40:15;;;;;;;1.60;1.02;;;18.60;56.60;;;;;;3965788;29;20065;-53
2023/05/20 07:42:57;;;;;;;;;;;18.60;55.80;;;;;;3973252;29;20134;-53
2023/05/20 07:45:38;;;;;;;1.63;1.05;;;18.60;55.90;;;;;;3962070;29;19936;-55
2023/05/20 07:48:20;;;;;;;4.70;1.27;;;18.60;55.90;;;;;;3947355;29;20542;-58
2023/05/20 07:51:01;;;;;;;2.28;1.30;;;18.50;55.90;;;;;;3957938;29;20526;-65
2023/05/20 07:53:43;;;;;;;2.70;1.35;;;18.60;56.10;;;;;;3957979;29;20062;-60
2023/05/20 07:56:25;;;;;;;3.45;1.10;;;18.50;56.00;;;;;;3958007;29;20436;-62
2023/05/20 07:59:06;;;;;;;1.55;1.15;;;18.50;56.10;;;;;;3957708;29;20069;-62
2023/05/20 08:01:53;;;;;;;2.42;1.58;;;18.50;57.00;;;;;;3971316;29;20081;-62
2023/05/20 08:04:34;;;;;;;1.35;1.08;;;18.50;56.20;;;;;;3972307;29;20057;-60
2023/05/20 08:07:15;;;;;;;1.30;1.20;;;18.50;56.10;;;;;;3972679;29;20076;-56
2023/05/20 08:10:31;;;;;;;2.83;1.52;;;18.50;56.10;;;;;;3962635;29;20115;-61
2023/05/20 08:13:12;;;;;;;1.73;1.60;;;18.50;56.20;;;;;;3970775;29;20073;-59
2023/05/20 08:15:53;;;;;;;3.10;1.77;;;18.50;56.30;;;;;;3956113;29;20058;-53
2023/05/20 08:18:36;;;;;;;2.85;1.33;;;18.50;56.40;;;;;;3956157;29;20116;-55
2023/05/20 08:21:18;;;;;;;1.77;1.30;;;18.50;56.60;;;;;;3955932;29;20515;-57
2023/05/20 08:23:59;;;;;;;1.40;1.20;;;18.60;56.70;;;;;;3958731;29;20061;-52
2023/05/20 08:26:41;;;;;;;;;;;18.60;57.00;;;;;;3960889;29;20057;-54
2023/05/20 08:29:22;;;;;;;3.80;1.45;;;18.60;57.70;;;;;;3960484;29;20005;-51
2023/05/20 08:32:04;;;;;;;;;;;18.60;57.10;;;;;;3958431;29;20118;-54
2023/05/20 08:34:48;;;;;;;3.78;1.50;;;18.60;56.90;;;;;;3966380;29;20016;-52
2023/05/20 08:37:29;;;;;;;2.33;1.70;;;18.60;56.80;;;;;;3946028;29;20073;-49
2023/05/20 08:40:12;;;;;;;3.33;1.52;;;18.70;56.90;;;;;;3963723;29;20076;-55
2023/05/20 08:42:56;;;;;;;1.67;1.58;;;18.70;56.90;;;;;;3957103;29;20061;-56
2023/05/20 08:45:38;;;;;;;1.73;1.27;;;18.70;56.80;;;;;;3956819;29;20506;-56
2023/05/20 08:48:26;;;;;;;1.63;1.52;;;18.70;56.70;;;;;;3957186;29;20062;-56
2023/05/20 08:51:10;;;;;;;1.75;1.58;;;18.70;56.80;;;;;;3957540;29;20197;-56
2023/05/20 08:53:51;;;;;;;6.30;1.90;;;18.80;56.80;;;;;;3957797;29;20531;-55
2023/05/20 08:56:33;;;;;;;1.60;1.45;;;18.80;56.60;;;;;;3958183;29;20058;-50
2023/05/20 08:59:17;;;;;;;1.73;1.63;;;18.80;56.60;;;;;;3964816;29;20057;-52
2023/05/20 09:01:57;;;;;;;4.30;1.70;;;18.90;56.70;;;;;;3972502;29;20062;-51
2023/05/20 09:04:39;;;;;;;4.15;1.80;;;18.90;56.50;;;;;;3972683;29;20559;-55
2023/05/20 09:07:27;;;;;;;2.85;1.70;;;18.90;56.40;;;;;;3972375;29;20073;-55
2023/05/20 09:10:08;;;;;;;1.85;1.73;;;19.00;56.20;;;;;;3972057;29;20058;-54
2023/05/20 09:12:50;;;;;;;1.88;1.70;;;19.00;56.40;;;;;;3972374;29;20110;-53
2023/05/20 09:15:33;;;;;;;2.10;1.55;;;19.00;56.40;;;;;;3971871;29;20175;-50
2023/05/20 09:18:15;;;;;;;2.35;1.73;;;19.00;56.00;;;;;;3971700;29;20077;-53
2023/05/20 09:20:56;;;;;;;3.35;1.52;;;19.10;56.00;;;;;;3957358;29;20415;-52
2023/05/20 09:23:38;;;;;;;2.63;1.77;;;19.10;55.90;;;;;;3957428;29;20072;-51
2023/05/20 09:26:19;;;;;;;1.83;1.63;;;19.20;55.80;;;;;;3971940;29;20061;-52
2023/05/20 09:29:00;;;;;;;2.45;2.05;;;19.20;55.80;;;;;;3960722;29;20061;-50
2023/05/20 09:31:42;;;;;;;2.05;1.73;;;19.20;55.60;;;;;;3986653;29;20065;-51
2023/05/20 09:34:23;;;;;;;1.90;1.80;;;19.30;55.50;;;;;;3963738;29;20526;-52
2023/05/20 09:37:07;;;;;;;2.08;1.73;;;19.30;55.50;;;;;;3971804;29;20074;-52
2023/05/20 09:39:56;;;;;;;4.00;1.80;;;19.40;55.10;;;;;;3971808;29;20070;-54
2023/05/20 09:42:42;;;;;;;3.10;1.80;;;19.40;54.60;;;;;;3971840;29;20518;-52
2023/05/20 09:45:24;;;;;;;2.15;1.92;;;19.40;54.60;;;;;;3967489;29;20066;-54
2023/05/20 09:48:09;;;;;;;1.52;1.42;;;19.40;54.90;;;;;;3965769;29;20063;-51
2023/05/20 09:50:51;;;;;;;3.80;2.08;;;19.50;55.00;;;;;;3972099;29;20069;-50
2023/05/20 09:53:32;;;;;;;2.30;2.10;;;19.50;55.00;;;;;;3971903;29;20061;-50
2023/05/20 09:56:13;;;;;;;2.00;1.80;;;19.50;55.10;;;;;;3970827;29;20835;-54
2023/05/20 09:58:57;;;;;;;3.08;1.65;;;19.50;55.10;;;;;;3971307;29;20050;-52
2023/05/20 10:01:37;;;;;;;2.03;1.88;;;19.60;55.30;;;;;;3971907;29;20066;-53
2023/05/20 10:04:21;;;;;;;2.25;1.90;;;19.60;55.00;;;;;;3971840;29;20061;-54
2023/05/20 10:07:35;;;;;;;2.10;1.90;;;19.70;55.10;;;;;;3971626;29;20078;-52
2023/05/20 10:10:32;;;;;;;1.85;1.75;;;19.70;55.10;;;;;;3971661;29;20127;-53
2023/05/20 10:13:25;;;;;;;2.78;1.70;;;19.70;55.00;;;;;;3971411;29;20166;-51
2023/05/20 10:16:17;;;;;;;2.28;1.50;;;19.70;54.70;;;;;;3971428;29;20057;-54
2023/05/20 10:19:01;;;;;;;;;;;19.80;55.00;;;;;;3971818;29;20066;-52
2023/05/20 10:21:44;;;;;;;1.88;1.77;;;19.80;54.90;;;;;;3970975;29;20057;-54
2023/05/20 10:24:30;;;;;;;2.42;1.75;;;19.80;54.70;;;;;;3960401;29;20058;-54
2023/05/20 10:27:14;;;;;;;3.38;1.83;;;19.80;54.50;;;;;;3966843;29;20130;-53
2023/05/20 10:29:57;;;;;;;5.60;1.88;;;19.90;54.60;;;;;;3952212;29;20058;-54
2023/05/20 10:32:38;;;;;;;3.53;1.98;;;19.90;54.60;;;;;;3971480;29;20511;-54
2023/05/20 10:35:21;;;;;;;;;;;19.90;54.60;;;;;;3971531;29;20054;-54
2023/05/20 10:38:11;;;;;;;4.97;2.20;;;20.00;54.30;;;;;;3970980;29;20024;-53
2023/05/20 10:40:52;;;;;;;2.00;1.67;;;20.00;54.40;;;;;;3970501;29;20057;-53
2023/05/20 10:43:33;;;;;;;2.28;1.98;;;20.00;54.20;;;;;;3971000;29;20078;-54
2023/05/20 10:46:18;;;;;;;2.85;1.75;;;20.00;54.00;;;;;;3970857;29;20065;-55
2023/05/20 10:49:18;;;;;;;4.45;2.05;;;20.00;54.10;;;;;;3955989;29;20070;-54
2023/05/20 10:52:02;;;;;;;2.22;1.58;;;20.10;54.00;;;;;;3956174;29;20061;-54
2023/05/20 10:54:46;;;;;;;5.68;2.05;;;20.10;53.90;;;;;;3960638;29;20066;-54
2023/05/20 10:57:29;;;;;;;4.63;1.65;;;20.10;53.90;;;;;;3962468;29;20062;-54
2023/05/20 11:00:11;;;;;;;2.65;1.90;;;20.10;54.00;;;;;;3960892;29;20424;-55
2023/05/20 11:02:52;;;;;;;2.03;1.88;;;20.20;53.80;;;;;;3954588;29;20054;-56
2023/05/20 11:05:33;;;;;;;;;;;20.20;53.30;;;;;;3969305;29;20058;-56
2023/05/20 11:08:15;;;;;;;6.93;1.98;;;20.20;53.10;;;;;;3967458;29;20384;-56
2023/05/20 11:11:11;;;;;;;3.65;2.10;;;20.20;53.20;;;;;;3969655;29;20053;-55
2023/05/20 11:13:52;;;;;;;2.28;1.75;;;20.20;53.30;;;;;;3958989;29;20061;-56
2023/05/20 11:16:33;;;;;;;1.95;1.80;;;20.20;53.30;;;;;;3970372;29;20061;-56
2023/05/20 11:19:16;;;;;;;4.00;1.50;;;20.20;53.40;;;;;;3970408;29;20628;-55
2023/05/20 11:21:57;;;;;;;4.28;1.90;;;20.20;53.20;;;;;;3970742;29;20053;-53
2023/05/20 11:24:38;;;;;;;3.38;1.60;;;20.20;53.40;;;;;;3970355;29;20135;-55
2023/05/20 11:27:20;;;;;;;3.67;1.70;;;20.20;53.30;;;;;;3956439;29;20058;-54
2023/05/20 11:30:02;;;;;;;1.55;1.45;;;20.20;53.10;;;;;;3958419;29;20061;-54
2023/05/20 11:32:44;;;;;;;2.78;1.50;;;20.20;53.00;;;;;;3959436;29;20196;-49
2023/05/20 11:35:26;;;;;;;;;;;20.30;52.60;;;;;;3970070;29;20061;-51
2023/05/20 11:38:08;;;;;;;2.70;1.60;;;20.30;52.60;;;;;;3966631;29;19951;-54
2023/05/20 11:40:52;;;;;;;2.70;2.08;;;20.30;52.50;;;;;;3974662;29;20062;-50
2023/05/20 11:43:35;;;;;;;2.25;1.52;;;20.30;51.90;;;;;;3956117;29;20125;-53
2023/05/20 11:46:16;;;;;;;3.40;1.77;;;20.30;51.40;;;;;;3955769;29;20204;-54
2023/05/20 11:48:57;;;;;;;3.13;1.75;;;20.30;51.40;;;;;;3944767;29;20196;-50
2023/05/20 11:51:39;;;;;;;1.60;1.50;;;20.30;51.70;;;;;;3957946;29;20282;-52
2023/05/20 11:54:22;;;;;;;2.38;1.85;;;20.40;51.80;;;;;;3957588;29;20074;-50
2023/05/20 11:57:03;;;;;;;1.33;1.23;;;20.30;52.00;;;;;;3980591;29;20126;-54
2023/05/20 11:59:49;;;;;;;2.53;1.50;;;20.30;52.10;;;;;;3988527;29;20391;-51
2023/05/20 12:02:30;;;;;;;2.13;1.92;;;20.30;52.00;;;;;;3988206;29;20096;-51
2023/05/20 12:05:11;;;;;;;1.58;1.48;;;20.40;52.10;;;;;;3967248;29;20066;-53
2023/05/20 12:07:52;;;;;;;2.80;1.60;;;20.40;52.10;;;;;;3975280;29;20057;-53
2023/05/20 12:10:34;;;;;;;3.80;2.17;;;20.40;52.00;;;;;;3973334;29;20115;-52
2023/05/20 12:13:15;;;;;;;1.48;1.27;;;20.40;52.80;;;;;;3982324;29;20057;-54
2023/05/20 12:15:57;;;;;;;2.75;1.63;;;20.50;52.10;;;;;;3973017;29;20053;-54
2023/05/20 12:18:38;;;;;;;1.40;1.30;;;20.50;52.00;;;;;;3961689;29;20463;-53
2023/05/20 12:21:19;;;;;;;2.00;1.48;;;20.50;52.10;;;;;;3973006;29;20134;-51
2023/05/20 12:24:00;;;;;;;1.70;1.60;;;20.50;52.10;;;;;;3973305;29;20077;-53
2023/05/20 12:26:41;;;;;;;4.50;2.20;;;20.50;51.70;;;;;;3978342;29;20195;-53
2023/05/20 12:29:22;;;;;;;2.70;1.58;;;20.50;52.50;;;;;;3976499;29;20073;-54
2023/05/20 12:32:05;;;;;;;2.80;1.45;;;20.50;51.80;;;;;;3972263;29;20407;-51
2023/05/20 12:34:49;;;;;;;3.05;1.65;;;20.50;52.10;;;;;;3972440;29;20054;-54
2023/05/20 12:37:31;;;;;;;2.22;1.92;;;20.50;53.20;;;;;;3961804;29;20135;-51
2023/05/20 12:40:14;;;;;;;2.45;1.80;;;20.50;52.40;;;;;;3972606;29;20404;-52
2023/05/20 12:42:54;;;;;;;2.80;1.80;;;20.50;52.20;;;;;;3971326;29;20138;-51
2023/05/20 12:45:35;;;;;;;3.15;2.00;;;20.50;52.10;;;;;;3972704;29;20407;-51
2023/05/20 12:48:18;;;;;;;2.03;1.92;;;20.50;52.20;;;;;;3964426;29;20187;-52
2023/05/20 12:51:05;;;;;;;2.17;1.98;;;20.60;52.00;;;;;;3982836;29;20045;-50
2023/05/20 12:53:46;;;;;;;4.63;1.75;;;20.60;52.00;;;;;;3966033;29;20069;-52
2023/05/20 12:56:27;;;;;;;2.13;2.03;;;20.60;52.10;;;;;;3956385;29;20190;-52
2023/05/20 12:59:08;;;;;;;3.53;1.98;;;20.60;52.20;;;;;;3966763;29;20071;-52
2023/05/20 13:01:50;;;;;;;2.53;2.25;;;20.60;52.30;;;;;;3986722;29;20061;-50
2023/05/20 13:04:32;;;;;;;3.28;2.30;;;20.70;52.50;;;;;;3971683;29;20106;-53
2023/05/20 13:07:13;;;;;;;2.45;2.13;;;20.70;52.40;;;;;;3946478;29;20062;-50
2023/05/20 13:09:54;;;;;;;3.53;2.10;;;20.70;52.10;;;;;;3956808;29;20522;-51
2023/05/20 13:12:35;;;;;;;15.82;2.78;;;20.70;51.90;;;;;;3957076;29;20082;-52
2023/05/20 13:15:16;;;;;;;;;;;20.70;51.80;;;;;;3954437;29;20517;-54
2023/05/20 13:17:57;;;;;;;2.92;2.08;;;20.70;51.70;;;;;;3986640;29;20289;-54
2023/05/20 13:20:40;;;;;;;2.53;2.33;;;20.70;51.80;;;;;;3986305;29;20190;-51
2023/05/20 13:23:21;;;;;;;2.53;1.88;;;20.70;52.60;;;;;;3972381;29;20065;-53
2023/05/20 13:26:01;;;;;;;4.68;2.38;;;20.70;51.80;;;;;;3986887;29;20062;-50
2023/05/20 13:28:42;;;;;;;2.15;1.95;;;20.70;51.70;;;;;;3974091;29;20180;-52
2023/05/20 13:31:23;;;;;;;4.68;2.05;;;20.80;51.80;;;;;;3972168;29;20053;-53
2023/05/20 13:34:07;;;;;;;2.08;1.75;;;20.80;52.00;;;;;;3979570;29;20168;-53
2023/05/20 13:36:49;;;;;;;2.58;1.75;;;20.80;52.10;;;;;;3972391;29;20479;-48
2023/05/20 13:39:30;;;;;;;2.90;1.85;;;20.80;52.10;;;;;;3960684;29;20062;-53
2023/05/20 13:42:11;;;;;;;6.22;2.10;;;20.80;52.20;;;;;;3974984;29;20065;-53
2023/05/20 13:44:52;;;;;;;2.85;2.03;;;20.80;52.90;;;;;;3986296;29;20110;-58
2023/05/20 13:47:33;;;;;;;3.60;2.20;;;20.80;52.20;;;;;;3948869;29;1138633;-51
2023/05/20 13:50:15;;;;;;;2.10;2.00;;;20.80;52.40;;;;;;3986861;29;20052;-53
2023/05/20 13:52:57;;;;;;;5.03;1.98;;;20.80;53.10;;;;;;3979996;29;20057;-51
2023/05/20 13:55:38;;;;;;;4.15;2.08;;;20.80;53.10;;;;;;3971261;29;20053;-52
2023/05/20 13:58:19;;;;;;;3.60;1.77;;;20.80;52.90;;;;;;3977862;29;20666;-50
2023/05/20 14:00:59;;;;;;;4.50;2.40;;;20.80;52.60;;;;;;3986470;29;20518;-51
2023/05/20 14:03:41;;;;;;;4.65;2.45;;;20.80;52.50;;;;;;3985194;29;20065;-52
2023/05/20 14:06:23;;;;;;;2.60;2.25;;;20.80;52.30;;;;;;3977363;29;20065;-52
2023/05/20 14:09:09;;;;;;;5.15;2.20;;;20.80;52.10;;;;;;3972143;29;20061;-52